Time;durP1;ratioP1;P1;durP2;ratioP2;P2;SDS_P1;SDS_P2;PMS_P1;PMS_P2;Temp;Humidity;BMP_temperature;BMP_pressure;BME280_temperature;BME280_humidity;BME280_pressure;Samples;Min_cycle;Max_cycle;Signal;HPM_P1;HPM_P2
2022/08/18 00:00:30;;;;;;;48.95;39.25;;;21.20;99.90;;;-147.18;100.00;67318.16;5058419;28;20032;-86
2022/08/18 00:03:04;;;;;;;54.03;42.38;;;21.20;99.90;;;-147.18;100.00;67318.16;5051253;28;20043;-86
2022/08/18 00:05:31;;;;;;;54.25;41.92;;;21.20;99.90;;;-147.18;100.00;67318.16;5051253;28;20052;-86
2022/08/18 00:08:00;;;;;;;54.83;40.45;;;21.20;99.90;;;-147.18;100.00;67318.16;5046998;28;20429;-86
2022/08/18 00:10:28;;;;;;;53.42;41.20;;;21.20;99.90;;;-147.18;100.00;67318.16;5045540;28;20040;-87
2022/08/18 00:12:55;;;;;;;51.05;40.80;;;21.10;99.90;;;-147.18;100.00;67318.16;5048878;28;20052;-87
2022/08/18 00:15:22;;;;;;;55.47;42.10;;;21.20;99.90;;;-147.18;100.00;67318.16;5048727;28;20029;-87
2022/08/18 00:17:49;;;;;;;54.15;42.58;;;21.20;99.90;;;-147.18;100.00;67318.16;5050145;28;20084;-86
2022/08/18 00:20:20;;;;;;;55.28;41.78;;;21.10;99.90;;;-147.18;100.00;67318.16;5049995;28;20055;-86
2022/08/18 00:22:48;;;;;;;54.85;41.45;;;21.10;99.90;;;-147.18;100.00;67318.16;5045592;28;20112;-86
2022/08/18 00:25:19;;;;;;;55.97;40.75;;;21.10;99.90;;;-147.18;100.00;67318.16;5049394;28;20072;-86
2022/08/18 00:27:47;;;;;;;54.08;40.88;;;21.10;99.90;;;-147.18;100.00;67318.16;5050024;28;20128;-86
2022/08/18 00:30:18;;;;;;;55.05;41.35;;;21.10;99.90;;;-147.18;100.00;67318.16;5058292;28;20037;-86
2022/08/18 00:32:50;;;;;;;51.88;40.40;;;21.10;99.90;;;-147.18;100.00;67318.16;5049467;28;20059;-86
2022/08/18 00:35:25;;;;;;;51.65;40.08;;;21.10;99.90;;;-147.18;100.00;67318.16;5048561;28;20485;-86
2022/08/18 00:37:55;;;;;;;53.35;39.90;;;21.10;99.90;;;-147.18;100.00;67318.16;5049068;28;20045;-86
2022/08/18 00:40:28;;;;;;;55.05;40.83;;;21.10;99.90;;;-147.18;100.00;67318.16;5049491;28;20116;-86
2022/08/18 00:43:00;;;;;;;54.85;41.53;;;21.10;99.90;;;-147.18;100.00;67318.16;5048757;28;20051;-86
2022/08/18 00:45:32;;;;;;;53.30;41.60;;;21.10;99.90;;;-147.18;100.00;67318.16;5041753;28;20033;-86
2022/08/18 00:48:00;;;;;;;58.72;43.10;;;21.10;99.90;;;-147.18;100.00;67318.16;5042027;28;20069;-86
2022/08/18 00:50:33;;;;;;;62.08;45.15;;;21.00;99.90;;;-147.18;100.00;67318.16;5047418;28;20049;-86
2022/08/18 00:53:05;;;;;;;67.85;45.55;;;21.00;99.90;;;-147.18;100.00;67318.16;5046836;28;20450;-86
2022/08/18 00:55:34;;;;;;;60.22;45.85;;;21.00;99.90;;;-147.18;100.00;67318.16;5054641;28;20131;-86
2022/08/18 00:58:09;;;;;;;62.65;47.03;;;21.00;99.90;;;-147.18;100.00;67318.16;5048737;28;20045;-86
2022/08/18 01:00:38;;;;;;;65.80;47.63;;;21.00;99.90;;;-147.18;100.00;67318.16;5041917;28;20386;-86
2022/08/18 01:03:11;;;;;;;63.53;47.33;;;21.20;99.90;;;-147.18;100.00;67318.16;5049394;28;20037;-86
2022/08/18 01:05:47;;;;;;;66.65;48.05;;;21.00;99.90;;;-147.18;100.00;67318.16;5053759;28;20045;-87
2022/08/18 01:08:16;;;;;;;69.72;51.03;;;21.00;99.90;;;-147.18;100.00;67318.16;5035685;28;20048;-87
2022/08/18 01:10:45;;;;;;;73.65;52.58;;;21.00;99.90;;;-147.18;100.00;67318.16;5053046;28;20049;-86
2022/08/18 01:13:13;;;;;;;80.75;55.60;;;21.00;99.90;;;-147.18;100.00;67318.16;5049333;28;20047;-86
2022/08/18 01:15:40;;;;;;;73.63;53.53;;;20.90;99.90;;;-147.18;100.00;67318.16;5049469;28;20033;-86
2022/08/18 01:23:53;;;;;;;84.13;56.90;;;20.90;99.90;;;-147.18;100.00;67318.16;5049475;28;20076;-86
2022/08/18 01:26:21;;;;;;;79.00;55.55;;;21.00;99.90;;;-147.18;100.00;67318.16;5045631;28;20119;-86
2022/08/18 01:28:49;;;;;;;84.18;56.88;;;20.90;99.90;;;-147.18;100.00;67318.16;5048629;28;20094;-86
2022/08/18 01:31:36;;;;;;;79.25;55.85;;;20.90;99.90;;;-147.18;100.00;67318.16;5047528;28;20622;-86
2022/08/18 01:34:05;;;;;;;80.40;55.72;;;20.90;99.90;;;-147.18;100.00;67318.16;5047372;28;20069;-86
2022/08/18 01:36:36;;;;;;;79.35;55.20;;;20.90;99.90;;;-147.18;100.00;67318.16;5051091;28;20041;-86
2022/08/18 01:39:07;;;;;;;;;;;20.90;99.90;;;-147.18;100.00;67318.16;5056970;28;20047;-86
2022/08/18 01:41:34;;;;;;;79.60;56.15;;;20.90;99.90;;;-147.18;100.00;67318.16;5050757;28;19924;-86
2022/08/18 01:44:03;;;;;;;77.53;55.60;;;20.90;99.90;;;-147.18;100.00;67318.16;5057532;22;20052;-90
2022/08/18 01:46:35;;;;;;;77.18;54.65;;;20.90;99.90;;;-147.18;100.00;67318.16;5023023;28;20048;-90
2022/08/18 01:49:04;;;;;;;83.07;56.67;;;20.90;99.90;;;-147.18;100.00;67318.16;5023008;28;20136;-89
2022/08/18 01:51:33;;;;;;;79.32;55.58;;;20.90;99.90;;;-147.18;100.00;67318.16;5035043;28;20041;-90
2022/08/18 01:54:01;;;;;;;82.63;59.08;;;20.90;99.90;;;-147.18;100.00;67318.16;5022785;28;20048;-90
2022/08/18 01:56:30;;;;;;;89.72;60.03;;;20.90;99.90;;;-147.18;100.00;67318.16;5032054;28;20037;-89
2022/08/18 01:58:58;;;;;;;88.07;59.92;;;21.00;99.90;;;-147.18;100.00;67318.16;5026001;28;20042;-89
2022/08/18 02:01:26;;;;;;;81.20;55.45;;;20.90;99.90;;;-147.18;100.00;67318.16;5021922;28;20474;-90
2022/08/18 02:03:58;;;;;;;86.03;58.40;;;21.00;99.90;;;-147.18;100.00;67318.16;5025343;28;20128;-90
2022/08/18 02:06:26;;;;;;;87.13;58.50;;;21.00;99.90;;;-147.18;100.00;67318.16;5018609;28;20538;-89
2022/08/18 02:08:54;;;;;;;91.93;60.92;;;21.00;99.90;;;-147.18;100.00;67318.16;5030229;28;20498;-90
2022/08/18 02:11:21;;;;;;;89.43;58.17;;;21.00;99.90;;;-147.18;100.00;67318.16;5023224;28;20045;-89
2022/08/18 02:13:50;;;;;;;97.93;63.30;;;21.00;99.90;;;-147.18;100.00;67318.16;5019000;28;20042;-89
2022/08/18 02:16:17;;;;;;;89.20;59.55;;;21.00;99.90;;;-147.18;100.00;67318.16;5028206;28;20044;-90
2022/08/18 02:18:44;;;;;;;91.15;59.50;;;21.00;99.90;;;-147.18;100.00;67318.16;5026372;28;20051;-90
2022/08/18 02:21:15;;;;;;;92.13;59.38;;;21.00;99.90;;;-147.18;100.00;67318.16;5020708;28;20049;-90
2022/08/18 02:23:44;;;;;;;97.13;63.55;;;21.00;99.90;;;-147.18;100.00;67318.16;5030923;28;20057;-89
2022/08/18 02:26:15;;;;;;;88.07;59.78;;;21.00;99.90;;;-147.18;100.00;67318.16;5028339;28;20041;-89
2022/08/18 02:28:42;;;;;;;;;;;21.00;99.90;;;-147.18;100.00;67318.16;5023001;28;20053;-91
2022/08/18 02:31:17;;;;;;;98.60;63.38;;;21.00;99.90;;;-147.18;100.00;67318.16;5031766;28;19921;-89
2022/08/18 02:33:46;;;;;;;90.22;61.03;;;21.00;99.90;;;-147.18;100.00;67318.16;5025923;28;20045;-89
2022/08/18 02:36:14;;;;;;;89.43;60.00;;;21.00;99.90;;;-147.18;100.00;67318.16;5030062;28;20133;-90
2022/08/18 02:38:42;;;;;;;86.93;59.70;;;21.00;99.90;;;-147.18;100.00;67318.16;5027773;28;20124;-89
2022/08/18 02:41:13;;;;;;;86.50;59.80;;;21.00;99.90;;;-147.18;100.00;67318.16;5025024;28;20125;-89
2022/08/18 02:43:42;;;;;;;86.88;58.78;;;21.00;99.90;;;-147.18;100.00;67318.16;5010631;28;20136;-89
2022/08/18 02:46:11;;;;;;;89.55;59.00;;;21.00;99.90;;;-147.18;100.00;67318.16;5026822;28;20140;-90
2022/08/18 02:48:38;;;;;;;98.28;61.05;;;21.00;99.90;;;-147.18;100.00;67318.16;5027352;28;20073;-89
2022/08/18 02:51:10;;;;;;;106.03;64.80;;;21.00;99.90;;;-147.18;100.00;67318.16;5024570;28;20136;-90
2022/08/18 02:53:39;;;;;;;112.55;65.80;;;21.00;99.90;;;-147.18;100.00;67318.16;5019494;28;20116;-90
2022/08/18 02:56:23;;;;;;;120.95;69.43;;;21.00;99.90;;;-147.18;100.00;67318.16;5020884;28;20041;-90
2022/08/18 02:58:54;;;;;;;126.60;70.03;;;21.00;99.90;;;-147.18;100.00;67318.16;5024011;28;20052;-89
2022/08/18 03:01:27;;;;;;;116.15;68.70;;;21.10;99.90;;;-147.18;100.00;67318.16;5018674;28;20046;-90
2022/08/18 03:03:56;;;;;;;129.43;72.40;;;21.00;99.90;;;-147.18;100.00;67318.16;5029692;28;20049;-89
2022/08/18 03:06:24;;;;;;;130.00;73.47;;;21.00;99.90;;;-147.18;100.00;67318.16;5010289;28;20144;-88
2022/08/18 03:08:52;;;;;;;124.22;70.15;;;21.00;99.90;;;-147.18;100.00;67318.16;5026430;28;20488;-89
2022/08/18 03:11:23;;;;;;;122.38;71.90;;;21.10;99.90;;;-147.18;100.00;67318.16;5029689;28;20061;-89
2022/08/18 03:13:50;;;;;;;135.02;72.53;;;21.10;99.90;;;-147.18;100.00;67318.16;5030160;28;20095;-89
2022/08/18 03:16:18;;;;;;;125.75;71.70;;;21.00;99.90;;;-147.18;100.00;67318.16;5028290;28;20379;-90
2022/08/18 03:18:48;;;;;;;132.93;74.15;;;21.10;99.90;;;-147.18;100.00;67318.16;5026310;28;20099;-89
2022/08/18 03:21:20;;;;;;;144.82;77.75;;;21.10;99.90;;;-147.18;100.00;67318.16;5029019;28;20518;-89
2022/08/18 03:23:47;;;;;;;128.27;72.03;;;21.10;99.90;;;-147.18;100.00;67318.16;5029832;28;20046;-89
2022/08/18 03:26:17;;;;;;;141.60;77.00;;;21.00;99.90;;;-147.18;100.00;67318.16;5011431;28;20516;-90
2022/08/18 03:28:49;;;;;;;142.32;77.10;;;21.00;99.90;;;-147.18;100.00;67318.16;5010126;28;20510;-89
2022/08/18 03:31:18;;;;;;;143.48;75.40;;;21.00;99.90;;;-147.18;100.00;67318.16;5028003;28;20498;-89
2022/08/18 03:33:47;;;;;;;139.13;76.63;;;21.00;99.90;;;-147.18;100.00;67318.16;5028694;28;20046;-88
2022/08/18 03:36:18;;;;;;;144.63;76.22;;;21.00;99.90;;;-147.18;100.00;67318.16;5026884;28;20125;-89
2022/08/18 03:38:47;;;;;;;;;;;21.00;99.90;;;-147.18;100.00;67318.16;5027204;28;20041;-90
2022/08/18 03:41:17;;;;;;;144.30;73.63;;;21.00;99.90;;;-147.18;100.00;67318.16;5014735;28;20337;-89
2022/08/18 03:43:44;;;;;;;144.70;76.22;;;21.00;99.90;;;-147.18;100.00;67318.16;5025910;28;20049;-88
2022/08/18 03:46:15;;;;;;;155.73;79.50;;;21.10;99.90;;;-147.18;100.00;67318.16;5028050;28;20076;-90
2022/08/18 03:48:45;;;;;;;147.15;76.20;;;21.10;99.90;;;-147.18;100.00;67318.16;5020203;28;20050;-89
2022/08/18 03:51:20;;;;;;;142.43;76.65;;;21.10;99.90;;;-147.18;100.00;67318.16;5027042;28;20056;-88
2022/08/18 03:53:49;;;;;;;148.20;78.63;;;21.10;99.90;;;-147.18;100.00;67318.16;5019962;28;20056;-89
2022/08/18 03:56:21;;;;;;;147.35;79.47;;;21.00;99.90;;;-147.18;100.00;67318.16;5022038;28;20040;-89
2022/08/18 03:58:51;;;;;;;143.88;78.25;;;21.10;99.90;;;-147.18;100.00;67318.16;5028004;28;20041;-89
2022/08/18 04:01:24;;;;;;;140.52;75.65;;;21.00;99.90;;;-147.18;100.00;67318.16;5018180;28;20562;-89
2022/08/18 04:03:58;;;;;;;147.20;77.15;;;21.00;99.90;;;-147.18;100.00;67318.16;5019726;28;20141;-89
2022/08/18 04:06:31;;;;;;;144.00;77.95;;;21.00;99.90;;;-147.18;100.00;67318.16;5025108;28;20060;-88
2022/08/18 04:09:01;;;;;;;146.15;78.28;;;21.00;99.90;;;-147.18;100.00;67318.16;5018844;28;20085;-87
2022/08/18 04:11:31;;;;;;;136.68;76.05;;;21.00;99.90;;;-147.18;100.00;67318.16;5017483;28;20128;-89
2022/08/18 04:13:58;;;;;;;131.07;72.47;;;21.00;99.90;;;-147.18;100.00;67318.16;5017995;28;20576;-89
2022/08/18 04:16:26;;;;;;;120.25;67.90;;;21.00;99.90;;;-147.18;100.00;67318.16;5026363;28;20084;-87
2022/08/18 04:18:55;;;;;;;120.72;64.35;;;21.00;99.90;;;-147.18;100.00;67318.16;5026817;28;20088;-87
2022/08/18 04:21:23;;;;;;;107.75;61.42;;;21.00;99.90;;;-147.18;100.00;67318.16;5017717;28;20029;-89
2022/08/18 04:23:51;;;;;;;118.72;61.47;;;21.00;99.90;;;-147.18;100.00;67318.16;5023219;28;20046;-89
2022/08/18 04:26:19;;;;;;;120.82;62.70;;;21.00;99.90;;;-147.18;100.00;67318.16;5025733;28;20076;-89
2022/08/18 04:28:46;;;;;;;107.88;57.63;;;21.00;99.90;;;-147.18;100.00;67318.16;5023260;28;20041;-89
2022/08/18 04:31:16;;;;;;;110.88;59.03;;;21.00;99.90;;;-147.18;100.00;67318.16;5020824;28;20164;-89
2022/08/18 04:33:44;;;;;;;117.20;58.67;;;21.00;99.90;;;-147.18;100.00;67318.16;5018711;28;20177;-88
2022/08/18 04:36:15;;;;;;;107.72;57.63;;;21.00;99.90;;;-147.18;100.00;67318.16;5023703;28;20425;-89
2022/08/18 04:38:43;;;;;;;112.75;59.60;;;21.00;99.90;;;-147.18;100.00;67318.16;5014603;28;20049;-89
2022/08/18 04:41:13;;;;;;;102.07;55.78;;;21.00;99.90;;;-147.18;100.00;67318.16;5022675;28;20443;-88
2022/08/18 04:43:41;;;;;;;114.90;59.25;;;21.00;99.90;;;-147.18;100.00;67318.16;5025917;28;20041;-88
2022/08/18 04:46:09;;;;;;;115.50;58.00;;;21.10;99.90;;;-147.18;100.00;67318.16;5024782;28;20073;-93
2022/08/18 04:48:39;;;;;;;108.55;58.45;;;21.00;99.90;;;-147.18;100.00;67318.16;5030711;28;20041;-93
2022/08/18 04:51:09;;;;;;;108.35;58.15;;;21.10;99.90;;;-147.18;100.00;67318.16;5020657;28;20065;-91
2022/08/18 04:53:45;;;;;;;108.32;56.38;;;21.00;99.90;;;-147.18;100.00;67318.16;5025533;28;20034;-92
2022/08/18 04:56:25;;;;;;;114.07;57.35;;;21.00;99.90;;;-147.18;100.00;67318.16;5022940;28;20128;-92
2022/08/18 04:58:54;;;;;;;103.15;54.63;;;21.10;99.90;;;-147.18;100.00;67318.16;5029258;28;20395;-93
2022/08/18 05:01:24;;;;;;;100.60;56.22;;;21.00;99.90;;;-147.18;100.00;67318.16;5018960;28;20133;-93
2022/08/18 05:03:53;;;;;;;100.85;54.17;;;21.10;99.90;;;-147.18;100.00;67318.16;5021429;28;20507;-91
2022/08/18 05:06:24;;;;;;;99.80;54.65;;;21.10;99.90;;;-147.18;100.00;67318.16;5020901;28;20061;-92
2022/08/18 05:08:53;;;;;;;96.70;52.63;;;21.10;99.90;;;-147.18;100.00;67318.16;5018012;28;20042;-92
2022/08/18 05:11:23;;;;;;;97.47;54.13;;;21.10;99.90;;;-147.18;100.00;67318.16;5027450;28;20489;-91
2022/08/18 05:13:52;;;;;;;100.72;55.47;;;21.10;99.90;;;-147.18;100.00;67318.16;5028520;28;20070;-92
2022/08/18 05:16:19;;;;;;;100.13;56.03;;;21.00;99.90;;;-147.18;100.00;67318.16;5028361;28;20046;-91
2022/08/18 05:18:47;;;;;;;107.35;56.88;;;21.10;99.90;;;-147.18;100.00;67318.16;5027762;28;20107;-92
2022/08/18 05:21:15;;;;;;;113.57;57.47;;;21.10;99.90;;;-147.18;100.00;67318.16;5031193;28;20049;-91
2022/08/18 05:23:42;;;;;;;111.65;56.92;;;21.10;99.90;;;-147.18;100.00;67318.16;5021673;28;20053;-93
2022/08/18 05:26:12;;;;;;;103.32;54.80;;;21.10;99.90;;;-147.18;100.00;67318.16;5027851;28;20857;-94
2022/08/18 05:28:41;;;;;;;103.15;56.13;;;21.10;99.90;;;-147.18;100.00;67318.16;5032289;28;20046;-92
2022/08/18 05:31:11;;;;;;;113.32;59.42;;;21.10;99.90;;;-147.18;100.00;67318.16;5026613;28;20044;-91
2022/08/18 05:33:40;;;;;;;110.28;57.13;;;21.10;99.90;;;-147.18;100.00;67318.16;5022807;28;20041;-92
2022/08/18 05:36:45;;;;;;;111.07;58.33;;;21.10;99.90;;;-147.18;100.00;67318.16;5032358;28;20037;-94
2022/08/18 05:39:22;;;;;;;116.32;59.60;;;21.10;99.90;;;-147.18;100.00;67318.16;5020960;28;20049;-93
2022/08/18 05:41:53;;;;;;;113.68;58.28;;;21.10;99.90;;;-147.18;100.00;67318.16;5034703;28;20045;-93
2022/08/18 05:44:27;;;;;;;101.15;56.67;;;21.10;99.90;;;-147.18;100.00;67318.16;5020312;28;20064;-89
2022/08/18 05:47:00;;;;;;;104.05;56.00;;;21.20;99.90;;;-147.18;100.00;67318.16;5028489;28;20050;-87
2022/08/18 05:49:27;;;;;;;103.88;57.38;;;21.20;99.90;;;-147.18;100.00;67318.16;5019100;28;20112;-85
2022/08/18 05:52:00;;;;;;;108.80;58.42;;;21.10;99.90;;;-147.18;100.00;67318.16;5025725;28;20878;-86
2022/08/18 05:57:33;;;;;;;106.28;56.28;;;21.10;99.90;;;-147.18;100.00;67318.16;5021344;28;20048;-86
2022/08/18 06:00:04;;;;;;;102.80;57.42;;;21.20;99.90;;;-147.18;100.00;67318.16;5034950;28;20570;-87
2022/08/18 06:02:47;;;;;;;110.05;58.88;;;21.20;99.90;;;-147.18;100.00;67318.16;5031469;28;20048;-86
2022/08/18 06:05:23;;;;;;;110.55;58.65;;;21.20;99.90;;;-147.18;100.00;67318.16;5030672;28;20042;-86
2022/08/18 06:07:56;;;;;;;111.18;59.67;;;21.20;99.90;;;-147.18;100.00;67318.16;5024390;28;20130;-86
2022/08/18 06:10:25;;;;;;;116.22;60.90;;;21.20;99.90;;;-147.18;100.00;67318.16;5026921;28;20041;-85
2022/08/18 06:12:57;;;;;;;115.15;58.15;;;21.20;99.90;;;-147.18;100.00;67318.16;5026711;28;20465;-86
2022/08/18 06:15:31;;;;;;;118.82;58.85;;;21.20;99.90;;;-147.18;100.00;67318.16;5023726;28;20045;-86
2022/08/18 06:18:35;;;;;;;114.05;59.38;;;21.30;99.90;;;-147.18;100.00;67318.16;5018783;28;20475;-86
2022/08/18 06:21:28;;;;;;;111.43;58.15;;;21.30;99.90;;;-147.18;100.00;67318.16;5028941;28;20065;-86
2022/08/18 06:24:06;;;;;;;112.75;58.58;;;21.30;99.90;;;-147.18;100.00;67318.16;5034937;28;20076;-89
2022/08/18 06:26:48;;;;;;;103.97;55.60;;;21.30;99.90;;;-147.18;100.00;67318.16;5027502;28;20120;-87
2022/08/18 06:29:34;;;;;;;102.75;57.15;;;21.30;99.90;;;-147.18;100.00;67318.16;5021416;28;20070;-89
2022/08/18 06:32:16;;;;;;;110.95;58.05;;;21.30;99.90;;;-147.18;100.00;67318.16;5011664;28;20072;-87
2022/08/18 06:35:02;;;;;;;106.20;57.83;;;21.30;99.90;;;-147.18;100.00;67318.16;5025570;28;20037;-87
2022/08/18 06:38:37;;;;;;;112.30;58.63;;;21.30;99.90;;;-147.18;100.00;67318.16;5025187;28;20044;-87
2022/08/18 06:40:22;;;;;;;107.03;56.78;;;21.30;99.90;;;-147.18;100.00;67318.16;5031700;28;20037;-86
2022/08/18 06:42:49;;;;;;;115.00;58.55;;;21.30;99.90;;;-147.18;100.00;67318.16;5024873;28;20059;-86
2022/08/18 06:45:18;;;;;;;117.43;60.95;;;21.30;99.90;;;-147.18;100.00;67318.16;5025988;28;20079;-87
2022/08/18 06:47:54;;;;;;;113.57;59.00;;;21.30;99.90;;;-147.18;100.00;67318.16;5021415;28;20509;-86
2022/08/18 06:50:30;;;;;;;123.70;61.97;;;21.30;99.90;;;-147.18;100.00;67318.16;5020916;28;20045;-87
2022/08/18 06:53:02;;;;;;;114.18;59.60;;;21.30;99.90;;;-147.18;100.00;67318.16;5023046;28;20221;-86
2022/08/18 06:55:36;;;;;;;112.53;59.47;;;21.30;99.90;;;-147.18;100.00;67318.16;5018692;28;20125;-87
2022/08/18 06:58:06;;;;;;;120.20;60.45;;;21.30;99.90;;;-147.18;100.00;67318.16;5025907;28;20083;-86
2022/08/18 07:00:42;;;;;;;118.95;61.70;;;21.30;99.90;;;-147.18;100.00;67318.16;5021684;28;20046;-87
2022/08/18 07:03:17;;;;;;;117.80;59.38;;;21.30;99.90;;;-147.18;100.00;67318.16;5041729;28;20084;-87
2022/08/18 07:06:01;;;;;;;118.65;61.17;;;21.30;99.90;;;-147.18;100.00;67318.16;5011530;28;20061;-87
2022/08/18 07:08:32;;;;;;;107.90;56.47;;;21.30;99.90;;;-147.18;100.00;67318.16;5022402;28;20034;-87
2022/08/18 07:11:14;;;;;;;111.10;57.05;;;21.30;99.90;;;-147.18;100.00;67318.16;5011986;28;20210;-87
2022/08/18 07:13:44;;;;;;;109.55;57.92;;;21.30;99.90;;;-147.18;100.00;67318.16;5045044;28;20054;-87
2022/08/18 07:16:18;;;;;;;99.55;55.50;;;21.30;99.90;;;-147.18;100.00;67318.16;5018093;28;20049;-86
2022/08/18 07:18:47;;;;;;;96.07;53.63;;;21.30;99.90;;;-147.18;100.00;67318.16;5026514;28;20076;-86
2022/08/18 07:21:27;;;;;;;100.50;53.53;;;21.30;99.90;;;-147.18;100.00;67318.16;5025016;28;20038;-87
2022/08/18 07:24:04;;;;;;;91.07;52.47;;;21.30;99.90;;;-147.18;100.00;67318.16;5017919;28;20049;-86
2022/08/18 07:26:51;;;;;;;82.97;49.42;;;21.30;99.90;;;-147.18;100.00;67318.16;5025889;28;20064;-86
2022/08/18 07:29:19;;;;;;;81.03;46.67;;;21.40;99.90;;;-147.18;100.00;67318.16;5023193;28;20555;-86
2022/08/18 07:31:49;;;;;;;84.25;47.50;;;21.30;99.90;;;-147.18;100.00;67318.16;5018934;28;20232;-87
2022/08/18 07:34:25;;;;;;;82.68;47.00;;;21.40;99.90;;;-147.18;100.00;67318.16;5017107;28;20494;-86
2022/08/18 07:37:01;;;;;;;75.30;45.88;;;21.40;99.90;;;-147.18;100.00;67318.16;5019040;28;20044;-87
2022/08/18 07:39:36;;;;;;;74.90;44.10;;;21.40;99.90;;;-147.18;100.00;67318.16;5038675;28;20588;-87
2022/08/18 07:42:11;;;;;;;73.57;44.60;;;21.40;99.90;;;-147.18;100.00;67318.16;5026332;28;20044;-86
2022/08/18 07:44:50;;;;;;;82.78;46.65;;;21.40;99.90;;;-147.18;100.00;67318.16;5027035;22;20461;-83
2022/08/18 07:47:25;;;;;;;82.32;46.28;;;21.40;99.90;;;-147.18;100.00;67318.16;4998395;28;20061;-83
2022/08/18 07:49:57;;;;;;;76.30;45.40;;;21.40;99.90;;;-147.18;100.00;67318.16;4996171;28;20533;-83
2022/08/18 07:52:30;;;;;;;77.90;47.83;;;21.50;99.90;;;-147.18;100.00;67318.16;5003425;28;20038;-83
2022/08/18 07:55:07;;;;;;;82.25;47.97;;;21.50;99.90;;;-147.18;100.00;67318.16;5004528;28;20050;-84
2022/08/18 07:57:47;;;;;;;90.57;51.33;;;21.50;99.90;;;-147.18;100.00;67318.16;5017628;28;20140;-83
2022/08/18 08:00:23;;;;;;;78.65;47.20;;;21.60;99.90;;;-147.18;100.00;67318.16;5004437;28;20125;-83
2022/08/18 08:03:06;;;;;;;83.63;48.55;;;21.60;99.90;;;-147.18;100.00;67318.16;5005856;28;20049;-83
2022/08/18 08:05:45;;;;;;;86.43;48.63;;;21.60;99.90;;;-147.18;100.00;67318.16;5003474;28;20041;-83
2022/08/18 08:08:24;;;;;;;78.07;47.45;;;21.60;99.90;;;-147.18;100.00;67318.16;5008140;28;20045;-83
2022/08/18 08:11:07;;;;;;;169.77;56.42;;;21.70;99.90;;;-147.18;100.00;67318.16;5008133;28;20053;-83
2022/08/18 08:13:50;;;;;;;119.30;53.38;;;21.70;99.90;;;-147.18;100.00;67318.16;5007801;28;20391;-83
2022/08/18 08:16:26;;;;;;;82.40;47.25;;;21.70;99.90;;;-147.18;100.00;67318.16;5008458;28;20092;-83
2022/08/18 08:19:05;;;;;;;78.45;48.17;;;21.70;99.90;;;-147.18;100.00;67318.16;5009266;28;20038;-83
2022/08/18 08:21:40;;;;;;;77.15;46.50;;;21.70;99.90;;;-147.18;100.00;67318.16;5003116;28;20074;-83
2022/08/18 08:24:25;;;;;;;79.95;46.97;;;21.80;99.90;;;-147.18;100.00;67318.16;5010292;28;20569;-83
2022/08/18 08:27:02;;;;;;;74.45;45.05;;;21.80;99.90;;;-147.18;100.00;67318.16;5007962;28;20121;-83
2022/08/18 08:29:41;;;;;;;74.50;45.53;;;21.80;99.90;;;-147.18;100.00;67318.16;4997388;28;20038;-83
2022/08/18 08:32:15;;;;;;;76.70;45.22;;;21.80;99.90;;;-147.18;100.00;67318.16;5008066;28;20124;-82
2022/08/18 08:35:01;;;;;;;68.40;43.80;;;21.80;99.90;;;-147.18;100.00;67318.16;4982276;28;20058;-81
2022/08/18 08:37:44;;;;;;;69.78;45.40;;;21.80;99.90;;;-147.18;100.00;67318.16;5000575;28;20044;-81
2022/08/18 08:40:28;;;;;;;73.78;45.33;;;21.80;99.90;;;-147.18;100.00;67318.16;5008241;28;20467;-82
2022/08/18 08:43:01;;;;;;;71.25;45.75;;;21.80;99.90;;;-147.18;100.00;67318.16;5006444;28;20050;-81
2022/08/18 08:45:33;;;;;;;75.78;45.85;;;21.80;99.90;;;-147.18;100.00;67318.16;5006516;28;20050;-82
2022/08/18 08:48:06;;;;;;;64.88;43.88;;;21.80;99.90;;;-147.18;100.00;67318.16;5005108;28;20044;-79
2022/08/18 08:50:51;;;;;;;67.10;44.72;;;21.90;99.90;;;-147.18;100.00;67318.16;5007537;28;20115;-78
2022/08/18 08:53:26;;;;;;;65.15;44.10;;;21.90;99.90;;;-147.18;100.00;67318.16;5010019;28;20040;-80
2022/08/18 08:56:00;;;;;;;66.53;43.35;;;22.00;99.90;;;-147.18;100.00;67318.16;5009678;28;20516;-79
2022/08/18 08:58:34;;;;;;;59.92;41.42;;;22.10;99.90;;;-147.18;100.00;67318.16;5004575;28;20125;-79
2022/08/18 09:01:02;;;;;;;68.57;44.33;;;22.00;99.90;;;-147.18;100.00;67318.16;5006211;28;20044;-79
2022/08/18 09:03:43;;;;;;;67.15;42.55;;;22.10;99.90;;;-147.18;100.00;67318.16;5007258;28;20439;-79
2022/08/18 09:06:26;;;;;;;65.28;41.70;;;22.10;99.90;;;-147.18;100.00;67318.16;5008117;28;20465;-85
2022/08/18 09:09:16;;;;;;;61.63;41.05;;;22.10;99.90;;;-147.18;100.00;67318.16;4982558;28;20152;-82
2022/08/18 09:12:18;;;;;;;67.18;42.72;;;22.10;99.90;;;-147.18;100.00;67318.16;5004398;28;20074;-80
2022/08/18 09:15:25;;;;;;;60.90;40.30;;;22.20;99.90;;;-147.18;100.00;67318.16;5004590;28;20121;-80
2022/08/18 09:18:42;;;;;;;63.30;41.72;;;22.20;99.90;;;-147.18;100.00;67318.16;4992105;28;20486;-80
2022/08/18 09:21:30;;;;;;;63.40;41.55;;;22.20;99.90;;;-147.18;100.00;67318.16;5001989;28;20064;-80
2022/08/18 09:24:13;;;;;;;61.38;42.38;;;22.30;99.90;;;-147.18;100.00;67318.16;4995851;28;20046;-80
2022/08/18 09:26:49;;;;;;;57.28;39.72;;;22.30;99.90;;;-147.18;100.00;67318.16;5009184;28;20042;-80
2022/08/18 09:29:24;;;;;;;62.05;42.70;;;22.30;99.90;;;-147.18;100.00;67318.16;5012064;28;20038;-80
2022/08/18 09:32:34;;;;;;;59.22;40.30;;;22.30;99.90;;;-147.18;100.00;67318.16;5007104;28;20129;-80
2022/08/18 09:35:24;;;;;;;67.03;44.13;;;22.30;99.90;;;-147.18;100.00;67318.16;5011127;28;20117;-80
2022/08/18 09:43:40;;;;;;;62.55;41.63;;;22.40;99.90;;;-147.18;100.00;67318.16;5008343;28;20121;-80
2022/08/18 09:46:09;;;;;;;60.40;42.15;;;22.40;99.90;;;-147.18;100.00;67318.16;5007763;28;20049;-80
2022/08/18 09:48:38;;;;;;;61.25;42.42;;;22.40;99.90;;;-147.18;100.00;67318.16;5009007;28;20096;-80
2022/08/18 09:51:35;;;;;;;58.65;41.17;;;22.40;99.90;;;-147.18;100.00;67318.16;5007356;28;20379;-80
2022/08/18 09:54:21;;;;;;;58.92;39.13;;;22.50;99.90;;;-147.18;100.00;67318.16;4999996;28;20048;-79
2022/08/18 09:57:23;;;;;;;63.08;41.35;;;22.50;99.90;;;-147.18;100.00;67318.16;5010075;28;20041;-80
2022/08/18 09:59:58;;;;;;;60.33;43.00;;;22.50;99.90;;;-147.18;100.00;67318.16;4992641;28;20049;-79
2022/08/18 10:03:13;;;;;;;64.63;44.17;;;22.50;99.90;;;-147.18;100.00;67318.16;5010257;28;20038;-79
2022/08/18 10:06:12;;;;;;;66.57;46.08;;;22.50;99.90;;;-147.18;100.00;67318.16;5009138;28;20052;-79
2022/08/18 10:09:36;;;;;;;64.88;46.55;;;22.50;99.90;;;-147.18;100.00;67318.16;5011667;28;20046;-79
2022/08/18 10:12:22;;;;;;;61.20;42.65;;;22.50;99.90;;;-147.18;100.00;67318.16;5007056;28;20048;-79
2022/08/18 10:15:39;;;;;;;60.88;40.80;;;22.50;99.90;;;-147.18;100.00;67318.16;5022027;28;20045;-79
2022/08/18 10:18:53;;;;;;;52.72;36.50;;;22.50;99.90;;;-147.18;100.00;67318.16;4968002;28;20049;-79
2022/08/18 10:21:27;;;;;;;49.08;35.70;;;22.60;99.90;;;-147.18;100.00;67318.16;4931166;29;20075;-79
2022/08/18 10:23:58;;;;;;;51.00;37.25;;;22.60;99.90;;;-147.18;100.00;67318.16;5004165;28;20056;-80
2022/08/18 10:27:07;;;;;;;53.10;35.28;;;22.60;99.90;;;-147.18;100.00;67318.16;5001175;28;20087;-79
2022/08/18 10:30:01;;;;;;;51.00;35.08;;;22.60;99.90;;;-147.18;100.00;67318.16;5010412;28;20045;-79